createdAt,value
2019-05-01T00:00:25.703Z,33.83
2019-05-01T00:03:05.974Z,34.83
2019-05-01T00:05:38.412Z,37.97
2019-05-01T00:08:08.185Z,42.87
2019-05-01T00:13:24.512Z,37.07
2019-05-01T00:15:53.747Z,38.10
2019-05-01T00:18:27.997Z,40.57
2019-05-01T00:21:01.598Z,40.93
2019-05-01T00:23:35.850Z,44.20
2019-05-01T00:26:11.859Z,39.90
2019-05-01T00:28:41.061Z,37.57
2019-05-01T00:31:10.370Z,39.30
2019-05-01T00:33:42.522Z,39.10
2019-05-01T00:36:13.083Z,37.07
2019-05-01T00:38:44.102Z,39.17
2019-05-01T00:41:14.342Z,35.40
2019-05-01T00:43:43.697Z,39.13
2019-05-01T00:46:12.904Z,40.40
2019-05-01T00:48:43.765Z,43.10
2019-05-01T00:51:13.109Z,40.80
2019-05-01T00:53:42.324Z,40.10
2019-05-01T00:56:29.935Z,39.23
2019-05-01T00:59:26.573Z,40.30
2019-05-01T01:02:12.433Z,40.67
2019-05-01T01:04:44.598Z,41.50
2019-05-01T01:07:16.548Z,38.10
2019-05-01T01:09:48.760Z,42.57
2019-05-01T01:12:21.308Z,42.77
2019-05-01T01:14:52.163Z,42.07
2019-05-01T01:17:23.206Z,41.97
2019-05-01T01:19:52.513Z,41.63
2019-05-01T01:22:21.740Z,40.20
2019-05-01T01:24:53.894Z,38.70
2019-05-01T01:27:23.504Z,42.13
2019-05-01T01:29:52.742Z,36.63
2019-05-01T01:32:22.029Z,40.83
2019-05-01T01:34:52.313Z,34.80
2019-05-01T01:37:22.961Z,38.53
2019-05-01T01:39:52.242Z,38.83
2019-05-01T01:42:21.557Z,41.47
2019-05-01T01:45:08.293Z,41.10
2019-05-01T01:48:15.597Z,42.40
2019-05-01T01:50:44.829Z,43.40
2019-05-01T01:53:16.157Z,39.27
2019-05-01T01:55:46.656Z,39.50
2019-05-01T01:58:16.405Z,43.33
2019-05-01T02:01:09.629Z,43.73
2019-05-01T02:03:40.628Z,43.23
2019-05-01T02:06:09.874Z,43.20
2019-05-01T02:08:39.169Z,43.77
2019-05-01T02:11:10.032Z,43.10
2019-05-01T02:13:40.578Z,42.90
2019-05-01T02:16:09.834Z,43.23
2019-05-01T02:18:39.037Z,41.30
2019-05-01T02:21:11.293Z,43.60
2019-05-01T02:23:42.160Z,45.63
2019-05-01T02:26:13.016Z,44.50
2019-05-01T02:28:48.337Z,45.43
2019-05-01T02:31:36.514Z,46.43
2019-05-01T02:34:08.697Z,45.63
2019-05-01T02:36:41.867Z,44.50
2019-05-01T02:39:11.079Z,46.07
2019-05-01T02:41:44.427Z,45.07
2019-05-01T02:44:22.538Z,44.97
2019-05-01T02:46:53.594Z,43.77
2019-05-01T02:49:35.636Z,45.63
2019-05-01T02:52:07.818Z,43.87
2019-05-01T02:54:39.838Z,42.17
2019-05-01T02:57:13.657Z,41.53
2019-05-01T02:59:47.347Z,42.10
2019-05-01T03:02:16.625Z,44.17
2019-05-01T03:04:48.945Z,44.50
2019-05-01T03:07:20.485Z,43.17
2019-05-01T03:09:52.721Z,39.73
2019-05-01T03:12:22.389Z,40.53
2019-05-01T03:14:51.616Z,42.20
2019-05-01T03:17:38.816Z,38.43
2019-05-01T03:20:29.964Z,39.90
2019-05-01T03:23:30.457Z,42.97
2019-05-01T03:25:59.650Z,44.07
2019-05-01T03:28:28.861Z,43.43
2019-05-01T03:30:58.089Z,44.97
2019-05-01T03:33:27.415Z,42.80
2019-05-01T03:35:56.706Z,45.00
2019-05-01T03:38:25.966Z,45.13
2019-05-01T03:40:55.254Z,42.20
2019-05-01T03:43:27.828Z,45.53
2019-05-01T03:45:57.042Z,40.17
2019-05-01T03:48:26.381Z,39.10
2019-05-01T03:50:55.622Z,38.00
2019-05-01T03:53:24.883Z,41.83
2019-05-01T03:55:54.216Z,44.17
2019-05-01T03:58:25.585Z,42.43
2019-05-01T04:01:13.437Z,44.77
2019-05-01T04:03:54.741Z,42.93
2019-05-01T04:06:26.903Z,41.53
2019-05-01T04:08:56.107Z,40.80
2019-05-01T04:11:25.305Z,41.73
2019-05-01T04:13:54.527Z,43.07
2019-05-01T04:16:23.834Z,43.17
2019-05-01T04:18:53.038Z,42.57
2019-05-01T04:21:24.062Z,42.67
2019-05-01T04:23:53.280Z,44.07
2019-05-01T04:26:22.489Z,45.93
2019-05-01T04:29:28.855Z,45.20
2019-05-01T04:32:04.618Z,45.17
2019-05-01T04:34:39.878Z,49.50
2019-05-01T04:37:10.777Z,46.20
2019-05-01T04:39:40.063Z,42.70
2019-05-01T04:42:09.421Z,44.03
2019-05-01T04:44:38.632Z,44.67
2019-05-01T04:47:07.919Z,42.93
2019-05-01T04:49:37.196Z,43.67
2019-05-01T04:52:06.387Z,48.03
2019-05-01T04:54:35.614Z,45.53
2019-05-01T04:57:04.821Z,44.33
2019-05-01T04:59:34.069Z,44.10
2019-05-01T05:02:04.921Z,44.23
2019-05-01T05:04:34.177Z,46.40
2019-05-01T05:07:03.389Z,46.50
2019-05-01T05:10:00.713Z,46.87
2019-05-01T05:12:51.764Z,45.67
2019-05-01T05:15:42.845Z,44.93
2019-05-01T05:18:12.150Z,39.43
2019-05-01T05:20:41.367Z,40.07
2019-05-01T05:23:10.602Z,36.70
2019-05-01T05:25:39.800Z,37.23
2019-05-01T05:28:09.084Z,36.17
2019-05-01T05:30:38.314Z,41.90
2019-05-01T05:33:17.852Z,39.20
2019-05-01T05:35:38.845Z,38.53
2019-05-01T05:38:17.675Z,44.93
2019-05-01T05:40:46.896Z,42.50
2019-05-01T05:43:16.135Z,42.00
2019-05-01T05:45:45.370Z,41.13
2019-05-01T05:48:14.568Z,38.73
2019-05-01T05:50:55.120Z,38.83
2019-05-01T05:53:25.613Z,39.57
2019-05-01T05:55:55.613Z,35.43
2019-05-01T05:58:29.009Z,42.80
2019-05-01T06:01:10.025Z,39.63
2019-05-01T06:04:10.274Z,42.20
2019-05-01T06:06:51.785Z,41.33
2019-05-01T06:09:25.620Z,43.87
2019-05-01T06:12:17.839Z,38.37
2019-05-01T06:14:54.822Z,42.67
2019-05-01T06:17:59.032Z,48.00
2019-05-01T06:20:48.228Z,43.87
2019-05-01T06:23:38.364Z,42.17
2019-05-01T06:26:25.514Z,47.20
2019-05-01T06:28:55.903Z,44.53
2019-05-01T06:31:25.877Z,39.07
2019-05-01T06:33:55.219Z,41.60
2019-05-01T06:36:24.500Z,41.17
2019-05-01T06:38:54.007Z,38.83
2019-05-01T06:41:23.225Z,39.00
2019-05-01T06:44:09.455Z,39.67
2019-05-01T06:46:58.227Z,41.70
2019-05-01T06:49:44.505Z,40.73
2019-05-01T06:52:16.348Z,44.67
2019-05-01T06:54:47.687Z,42.17
2019-05-01T06:57:16.478Z,37.57
2019-05-01T06:59:45.711Z,38.13
2019-05-01T07:02:16.122Z,35.10
2019-05-01T07:04:45.866Z,37.17
2019-05-01T07:07:25.142Z,34.90
2019-05-01T07:09:49.435Z,32.43
2019-05-01T07:12:23.908Z,34.30
2019-05-01T07:14:52.197Z,32.80
2019-05-01T07:17:21.845Z,28.57
2019-05-01T07:19:58.469Z,31.40
2019-05-01T07:22:27.780Z,33.63
2019-05-01T07:24:59.006Z,25.90
2019-05-01T07:27:27.944Z,25.87
2019-05-01T07:30:00.708Z,26.90
2019-05-01T07:32:29.965Z,24.80
2019-05-01T07:35:01.913Z,26.00
2019-05-01T07:37:30.079Z,21.87
2019-05-01T07:39:59.285Z,24.53
2019-05-01T07:42:34.126Z,24.83
2019-05-01T07:45:26.672Z,21.93
2019-05-01T07:47:56.157Z,24.53
2019-05-01T07:50:31.498Z,24.70
2019-05-01T07:52:59.929Z,23.63
2019-05-01T07:55:41.075Z,24.60
2019-05-01T07:58:15.664Z,20.83
2019-05-01T08:01:02.108Z,23.23
2019-05-01T08:03:31.330Z,25.93
2019-05-01T08:06:00.525Z,21.00
2019-05-01T08:08:29.758Z,21.50
2019-05-01T08:10:59.832Z,22.73
2019-05-01T08:13:30.662Z,21.23
2019-05-01T08:16:02.148Z,20.37
2019-05-01T08:18:38.042Z,21.43
2019-05-01T08:21:41.919Z,20.37
2019-05-01T08:24:11.128Z,19.43
2019-05-01T08:26:44.158Z,20.70
2019-05-01T08:29:30.391Z,21.37
2019-05-01T08:32:39.258Z,22.07
2019-05-01T08:35:08.283Z,21.40
2019-05-01T08:37:37.484Z,20.73
2019-05-01T08:40:07.260Z,22.43
2019-05-01T08:42:37.641Z,20.87
2019-05-01T08:45:25.289Z,20.27
2019-05-01T08:48:16.348Z,19.47
2019-05-01T08:50:45.660Z,21.83
2019-05-01T08:53:18.032Z,20.50
2019-05-01T08:55:47.087Z,22.00
2019-05-01T08:58:16.494Z,17.87
2019-05-01T09:00:45.784Z,19.80
2019-05-01T09:03:18.767Z,19.27
2019-05-01T09:05:45.982Z,19.13
2019-05-01T09:08:15.180Z,19.47
2019-05-01T09:10:44.418Z,20.13
2019-05-01T09:13:13.708Z,20.87
2019-05-01T09:15:43.657Z,20.80
2019-05-01T09:18:13.908Z,21.00
2019-05-01T09:20:44.800Z,18.73
2019-05-01T09:23:14.611Z,19.57
2019-05-01T09:25:53.198Z,19.03
2019-05-01T09:28:29.969Z,20.40
2019-05-01T09:31:03.179Z,21.30
2019-05-01T09:33:32.281Z,19.70
2019-05-01T09:36:01.494Z,22.97
2019-05-01T09:38:30.730Z,21.23
2019-05-01T09:40:59.950Z,20.43
2019-05-01T09:43:30.907Z,19.80
2019-05-01T09:46:01.247Z,17.30
2019-05-01T09:48:33.645Z,18.83
2019-05-01T09:51:10.148Z,18.73
2019-05-01T09:53:48.929Z,19.20
2019-05-01T09:56:21.433Z,18.77
2019-05-01T09:58:50.645Z,17.97
2019-05-01T10:01:24.591Z,21.50
2019-05-01T10:03:54.517Z,21.17
2019-05-01T10:06:21.777Z,17.93
2019-05-01T10:08:51.004Z,19.90
2019-05-01T10:11:20.235Z,18.17
2019-05-01T10:13:49.428Z,18.73
2019-05-01T10:16:18.661Z,21.33
2019-05-01T10:18:47.877Z,19.67
2019-05-01T10:21:17.117Z,17.83
2019-05-01T10:23:47.053Z,17.23
2019-05-01T10:26:23.505Z,17.53
2019-05-01T10:29:21.410Z,17.17
2019-05-01T10:32:02.373Z,16.60
2019-05-01T10:34:43.011Z,15.40
2019-05-01T10:37:11.434Z,14.40
2019-05-01T10:39:40.664Z,15.57
2019-05-01T10:42:10.066Z,15.07
2019-05-01T10:44:39.285Z,17.27
2019-05-01T10:47:08.576Z,16.10
2019-05-01T10:49:37.791Z,15.33
2019-05-01T10:52:13.885Z,15.53
2019-05-01T10:54:37.936Z,15.93
2019-05-01T10:57:07.164Z,16.60
2019-05-01T10:59:36.397Z,16.37
2019-05-01T11:02:07.085Z,15.80
2019-05-01T11:04:36.328Z,16.03
2019-05-01T11:07:05.564Z,16.50
2019-05-01T11:09:34.798Z,15.67
2019-05-01T11:12:08.368Z,15.03
2019-05-01T11:14:37.597Z,17.20
2019-05-01T11:17:06.992Z,16.57
2019-05-01T11:19:36.293Z,15.27
2019-05-01T11:22:05.503Z,12.80
2019-05-01T11:24:35.020Z,16.80
2019-05-01T11:27:04.273Z,17.00
2019-05-01T11:29:35.428Z,13.30
2019-05-01T11:32:15.920Z,14.50
2019-05-01T11:34:52.493Z,14.97
2019-05-01T11:37:34.874Z,15.43
2019-05-01T11:40:08.979Z,15.30
2019-05-01T11:42:38.215Z,13.23
2019-05-01T11:45:08.542Z,17.20
2019-05-01T11:47:37.735Z,14.70
2019-05-01T11:50:06.975Z,15.03
2019-05-01T11:52:36.318Z,16.23
2019-05-01T11:55:05.621Z,15.77
2019-05-01T11:57:34.933Z,15.60
2019-05-01T12:00:05.099Z,14.93
2019-05-01T12:02:34.298Z,15.77
2019-05-01T12:05:03.606Z,16.17
2019-05-01T12:07:32.805Z,15.90
2019-05-01T12:10:02.024Z,15.60
2019-05-01T12:12:32.868Z,15.47
2019-05-01T12:15:02.294Z,15.13
2019-05-01T12:17:40.368Z,21.10
2019-05-01T12:20:10.032Z,15.67
2019-05-01T12:22:39.249Z,14.63
2019-05-01T12:25:08.471Z,14.67
2019-05-01T12:27:37.683Z,15.37
2019-05-01T12:30:07.086Z,17.33
2019-05-01T12:32:36.297Z,17.40
2019-05-01T12:35:05.692Z,19.73
2019-05-01T12:37:40.915Z,14.63
2019-05-01T12:40:11.469Z,14.03
2019-05-01T12:42:40.684Z,15.17
2019-05-01T12:45:10.116Z,19.17
2019-05-01T12:47:44.045Z,14.90
2019-05-01T12:50:14.597Z,12.97
2019-05-01T12:53:10.248Z,14.13
2019-05-01T12:56:01.255Z,12.73
2019-05-01T12:58:30.461Z,14.93
2019-05-01T13:00:59.696Z,15.97
2019-05-01T13:03:28.920Z,19.03
2019-05-01T13:05:58.207Z,17.40
2019-05-01T13:08:27.481Z,14.93
2019-05-01T13:10:59.685Z,15.40
2019-05-01T13:13:28.989Z,15.40
2019-05-01T13:15:58.433Z,13.70
2019-05-01T13:18:27.654Z,13.53
2019-05-01T13:20:58.630Z,14.97
2019-05-01T13:23:29.060Z,11.77
2019-05-01T13:26:23.138Z,14.70
2019-05-01T13:29:14.247Z,23.60
2019-05-01T13:31:52.049Z,12.50
2019-05-01T13:34:21.298Z,12.00
2019-05-01T13:37:02.412Z,12.03
2019-05-01T13:39:21.549Z,10.07
2019-05-01T13:41:50.818Z,14.17
2019-05-01T13:44:20.035Z,11.40
2019-05-01T13:46:49.352Z,12.70
2019-05-01T13:49:18.570Z,12.27
2019-05-01T13:51:47.796Z,12.73
2019-05-01T13:54:16.981Z,11.50
2019-05-01T13:56:46.180Z,10.67
2019-05-01T13:59:16.764Z,12.43
2019-05-01T14:01:45.982Z,13.63
2019-05-01T14:04:15.888Z,10.93
2019-05-01T14:06:45.087Z,12.00
2019-05-01T14:09:22.508Z,11.40
2019-05-01T14:11:51.749Z,12.50
2019-05-01T14:14:20.998Z,12.50
2019-05-01T14:16:57.478Z,12.27
2019-05-01T14:19:26.949Z,14.33
2019-05-01T14:22:26.212Z,13.07
2019-05-01T14:24:57.565Z,15.43
2019-05-01T14:27:28.295Z,16.20
2019-05-01T14:29:57.697Z,14.20
2019-05-01T14:32:27.282Z,13.27
2019-05-01T14:34:56.549Z,13.37
2019-05-01T14:37:29.709Z,15.67
2019-05-01T14:39:56.740Z,12.83
2019-05-01T14:42:25.940Z,16.03
2019-05-01T14:44:55.121Z,12.47
2019-05-01T14:47:24.349Z,12.27
2019-05-01T14:49:53.571Z,10.43
2019-05-01T14:52:23.172Z,11.07
2019-05-01T14:54:52.414Z,12.57
2019-05-01T14:57:24.721Z,10.80
2019-05-01T14:59:53.914Z,12.20
2019-05-01T15:02:24.562Z,10.43
2019-05-01T15:04:53.795Z,11.57
2019-05-01T15:07:22.982Z,8.93
2019-05-01T15:09:52.160Z,11.70
2019-05-01T15:12:21.405Z,10.43
2019-05-01T15:15:00.505Z,10.90
2019-05-01T15:17:44.826Z,11.73
2019-05-01T15:20:14.034Z,11.70
2019-05-01T15:22:43.246Z,12.40
2019-05-01T15:25:12.487Z,10.13
2019-05-01T15:27:41.718Z,11.10
2019-05-01T15:30:11.459Z,11.93
2019-05-01T15:32:41.139Z,11.97
2019-05-01T15:35:10.401Z,12.17
2019-05-01T15:37:39.600Z,16.47
2019-05-01T15:40:27.989Z,11.83
2019-05-01T15:43:19.172Z,12.23
2019-05-01T15:45:49.566Z,11.43
2019-05-01T15:48:18.779Z,12.63
2019-05-01T15:50:50.028Z,11.80
2019-05-01T15:53:19.266Z,12.50
2019-05-01T15:55:48.574Z,13.83
2019-05-01T15:58:20.016Z,14.17
2019-05-01T16:00:49.216Z,12.13
2019-05-01T16:03:18.496Z,11.50
2019-05-01T16:05:49.128Z,13.47
2019-05-01T16:08:18.335Z,11.90
2019-05-01T16:10:57.872Z,11.23
2019-05-01T16:13:27.070Z,11.07
2019-05-01T16:15:56.312Z,18.43
2019-05-01T16:18:25.501Z,10.57
2019-05-01T16:21:07.813Z,10.83
2019-05-01T16:23:37.015Z,10.80
2019-05-01T16:26:06.197Z,10.57
2019-05-01T16:28:35.404Z,11.97
2019-05-01T16:31:06.787Z,11.17
2019-05-01T16:33:36.072Z,12.03
2019-05-01T16:36:05.248Z,12.20
2019-05-01T16:38:55.848Z,13.73
2019-05-01T16:41:25.570Z,12.73
2019-05-01T16:43:54.772Z,11.17
2019-05-01T16:46:23.979Z,11.13
2019-05-01T16:48:53.195Z,11.43
2019-05-01T16:51:22.409Z,12.77
2019-05-01T16:53:51.584Z,13.50
2019-05-01T16:56:20.789Z,11.83
2019-05-01T16:58:49.979Z,11.67
2019-05-01T17:01:30.536Z,11.57
2019-05-01T17:04:08.029Z,12.60
2019-05-01T17:06:48.463Z,11.33
2019-05-01T17:09:35.550Z,12.23
2019-05-01T17:12:04.779Z,15.37
2019-05-01T17:14:33.971Z,11.97
2019-05-01T17:17:04.815Z,14.33
2019-05-01T17:19:34.082Z,14.03
2019-05-01T17:22:03.301Z,13.67
2019-05-01T17:24:32.483Z,12.80
2019-05-01T17:27:07.911Z,13.97
2019-05-01T17:29:37.416Z,13.43
2019-05-01T17:32:08.712Z,11.67
2019-05-01T17:34:37.921Z,11.37
2019-05-01T17:37:07.135Z,12.87
2019-05-01T17:39:36.324Z,14.80
2019-05-01T17:42:05.782Z,13.13
2019-05-01T17:44:34.966Z,13.40
2019-05-01T17:47:04.470Z,12.23
2019-05-01T17:49:33.649Z,11.90
2019-05-01T17:52:02.881Z,12.40
2019-05-01T17:54:32.068Z,12.20
2019-05-01T17:57:01.263Z,13.30
2019-05-01T17:59:30.528Z,11.87
2019-05-01T18:02:17.379Z,10.97
2019-05-01T18:05:14.814Z,12.87
2019-05-01T18:07:44.131Z,15.03
2019-05-01T18:10:13.328Z,13.83
2019-05-01T18:12:42.539Z,14.60
2019-05-01T18:15:11.785Z,14.53
2019-05-01T18:17:40.995Z,14.57
2019-05-01T18:20:10.209Z,13.90
2019-05-01T18:22:57.240Z,13.80
2019-05-01T18:25:33.213Z,12.47
2019-05-01T18:28:24.967Z,12.23
2019-05-01T18:30:56.622Z,15.90
2019-05-01T18:33:25.983Z,13.83
2019-05-01T18:35:54.511Z,13.27
2019-05-01T18:38:29.950Z,13.87
2019-05-01T18:41:18.264Z,12.63
2019-05-01T18:43:47.535Z,13.53
2019-05-01T18:46:16.957Z,12.77
2019-05-01T18:48:46.334Z,13.73
2019-05-01T18:51:16.426Z,12.57
2019-05-01T18:53:45.813Z,14.27
2019-05-01T18:56:16.691Z,13.93
2019-05-01T18:58:46.070Z,14.63
2019-05-01T19:01:15.291Z,13.60
2019-05-01T19:03:44.497Z,14.57
2019-05-01T19:06:13.713Z,13.67
2019-05-01T19:08:42.924Z,17.97
2019-05-01T19:11:13.304Z,16.73
2019-05-01T19:13:42.787Z,17.87
2019-05-01T19:16:12.009Z,14.83
2019-05-01T19:18:41.319Z,17.30
2019-05-01T19:21:11.189Z,17.10
2019-05-01T19:23:40.437Z,15.27
2019-05-01T19:26:10.631Z,15.27
2019-05-01T19:28:39.846Z,17.23
2019-05-01T19:31:09.319Z,16.93
2019-05-01T19:33:41.674Z,17.33
2019-05-01T19:36:10.377Z,15.47
2019-05-01T19:38:39.657Z,15.63
2019-05-01T19:41:13.926Z,17.17
2019-05-01T19:43:40.340Z,15.00
2019-05-01T19:46:10.771Z,17.13
2019-05-01T19:48:45.263Z,18.67
2019-05-01T19:51:11.960Z,17.33
2019-05-01T19:53:46.569Z,18.07
2019-05-01T19:56:16.595Z,17.73
2019-05-01T19:58:44.337Z,20.53
2019-05-01T20:01:13.574Z,18.20
2019-05-01T20:03:42.891Z,19.63
2019-05-01T20:06:13.379Z,19.80
2019-05-01T20:08:42.620Z,19.23
2019-05-01T20:11:11.872Z,21.17
2019-05-01T20:13:41.089Z,19.27
2019-05-01T20:16:10.900Z,20.87
2019-05-01T20:18:40.172Z,23.17
2019-05-01T20:21:09.405Z,21.47
2019-05-01T20:23:38.597Z,22.63
2019-05-01T20:26:07.808Z,23.83
2019-05-01T20:28:37.461Z,23.70
2019-05-01T20:31:06.847Z,24.00
2019-05-01T20:33:39.122Z,21.63
2019-05-01T20:36:07.298Z,21.70
2019-05-01T20:38:36.485Z,23.70
2019-05-01T20:41:10.350Z,23.13
2019-05-01T20:43:38.115Z,22.90
2019-05-01T20:46:21.459Z,26.17
2019-05-01T20:48:49.612Z,23.07
2019-05-01T20:51:20.289Z,23.87
2019-05-01T20:53:49.743Z,25.07
2019-05-01T20:56:25.454Z,26.47
2019-05-01T20:58:57.751Z,24.57
2019-05-01T21:01:28.222Z,25.87
2019-05-01T21:04:18.678Z,25.90
2019-05-01T21:07:06.973Z,28.23
2019-05-01T21:09:47.273Z,29.03
2019-05-01T21:12:09.225Z,25.87
2019-05-01T21:14:51.042Z,28.37
2019-05-01T21:17:24.370Z,28.43
2019-05-01T21:20:01.184Z,29.03
2019-05-01T21:22:35.174Z,26.27
2019-05-01T21:25:04.691Z,27.30
2019-05-01T21:27:55.183Z,29.23
2019-05-01T21:30:33.903Z,29.37
2019-05-01T21:33:11.511Z,28.07
2019-05-01T21:35:40.199Z,29.23
2019-05-01T21:38:15.416Z,28.53
2019-05-01T21:40:51.084Z,30.17
2019-05-01T21:43:33.211Z,28.20
2019-05-01T21:46:08.181Z,28.60
2019-05-01T21:48:39.752Z,30.70
2019-05-01T21:51:13.908Z,30.80
2019-05-01T21:53:53.006Z,30.07
2019-05-01T21:56:22.357Z,32.47
2019-05-01T21:58:55.029Z,30.30
2019-05-01T22:01:30.335Z,32.00
2019-05-01T22:04:06.183Z,35.97
2019-05-01T22:06:35.382Z,43.40
2019-05-01T22:09:26.452Z,31.53
2019-05-01T22:12:08.114Z,33.87
2019-05-01T22:14:49.728Z,31.03
2019-05-01T22:17:27.422Z,30.63
2019-05-01T22:19:57.511Z,32.20
2019-05-01T22:22:38.614Z,34.87
2019-05-01T22:25:15.908Z,35.57
2019-05-01T22:28:27.007Z,32.80
2019-05-01T22:31:16.712Z,35.00
2019-05-01T22:33:48.043Z,38.43
2019-05-01T22:36:17.316Z,38.63
2019-05-01T22:38:46.742Z,35.90
2019-05-01T22:41:15.993Z,36.47
2019-05-01T22:43:45.159Z,36.60
2019-05-01T22:46:20.572Z,39.07
2019-05-01T22:48:49.759Z,37.63
2019-05-01T22:51:34.444Z,37.70
2019-05-01T22:54:10.232Z,36.97
2019-05-01T22:56:39.421Z,38.07
2019-05-01T22:59:14.409Z,39.37
2019-05-01T23:01:49.161Z,39.40
2019-05-01T23:04:28.981Z,41.27
2019-05-01T23:06:58.157Z,40.73
2019-05-01T23:09:30.377Z,43.33
2019-05-01T23:12:04.237Z,42.33
2019-05-01T23:14:34.733Z,44.47
2019-05-01T23:17:45.311Z,46.87
2019-05-01T23:19:54.366Z,45.20
2019-05-01T23:22:26.507Z,42.97
2019-05-01T23:25:01.248Z,42.73
2019-05-01T23:27:30.790Z,43.83
2019-05-01T23:30:00.035Z,41.33
2019-05-01T23:32:29.270Z,43.37
2019-05-01T23:35:07.565Z,43.03
2019-05-01T23:37:33.786Z,43.07
2019-05-01T23:40:02.956Z,42.53
2019-05-01T23:42:43.846Z,45.17
2019-05-01T23:45:18.739Z,44.43
2019-05-01T23:47:50.730Z,44.10
2019-05-01T23:50:23.051Z,42.80
2019-05-01T23:53:15.632Z,43.67
2019-05-01T23:55:46.123Z,41.40
2019-05-01T23:58:24.175Z,43.03
